Las Cruces International Airport


Codes: KLRU/LRU
Name: Las Cruces International Airport
City: Las Cruces
Country: United States
Elevation: 4456 ft.
Wikipedia:

Photos at Las Cruces International Airport


   Photos courtesy of SpottingLog. You can add your own sightings and photos by signing up for a free trial today.



No photos found.

Weather at Las Cruces International Airport


Time (UTC)DescriptionTempratureWindCloud coverageVisibilityPressureHumidity
25-Jun-2024 12:00Broken Clouds23°C7 mph, N73%10000m1010hPa49%
25-Jun-2024 15:00Broken Clouds25°C0 mph, NW74%10000m1010hPa42%
25-Jun-2024 18:00Broken Clouds31°C0 mph, N84%10000m1009hPa30%
25-Jun-2024 21:00Broken Clouds38°C4 mph, SW63%10000m1006hPa15%
26-Jun-2024 00:00Scattered Clouds33°C22 mph, N48%10000m1006hPa26%
26-Jun-2024 03:00Broken Clouds31°C13 mph, NW71%10000m1007hPa28%
26-Jun-2024 06:00Broken Clouds30°C7 mph, N84%10000m1009hPa29%
26-Jun-2024 09:00Broken Clouds26°C11 mph, W69%10000m1009hPa45%
26-Jun-2024 12:00Broken Clouds25°C9 mph, NW76%10000m1010hPa48%
26-Jun-2024 15:00Few Clouds31°C4 mph, N12%10000m1010hPa30%
26-Jun-2024 18:00Few Clouds36°C2 mph, NE11%10000m1008hPa20%
26-Jun-2024 21:00Broken Clouds37°C4 mph, SE79%10000m1005hPa18%
27-Jun-2024 00:00Broken Clouds31°C22 mph, SE74%10000m1005hPa33%
27-Jun-2024 03:00Light Rain27°C13 mph, SE100%10000m1009hPa44%
27-Jun-2024 06:00Light Rain25°C11 mph, SW100%10000m1013hPa53%
27-Jun-2024 09:00Light Rain24°C11 mph, SW100%10000m1012hPa63%
27-Jun-2024 12:00Overcast Clouds24°C4 mph, NW100%10000m1010hPa62%
27-Jun-2024 15:00Overcast Clouds27°C7 mph, W100%10000m1010hPa51%
27-Jun-2024 18:00Overcast Clouds32°C9 mph, SW96%10000m1008hPa34%
27-Jun-2024 21:00Overcast Clouds35°C9 mph, SW100%10000m1004hPa25%
28-Jun-2024 00:00Broken Clouds36°C9 mph, SW78%10000m1000hPa20%
28-Jun-2024 03:00Overcast Clouds31°C7 mph, N98%10000m1003hPa32%
28-Jun-2024 06:00Overcast Clouds30°C11 mph, W89%10000m1004hPa32%
28-Jun-2024 09:00Broken Clouds28°C13 mph, W64%10000m1004hPa38%
28-Jun-2024 12:00Broken Clouds26°C11 mph, NW66%10000m1006hPa45%
28-Jun-2024 15:00Overcast Clouds30°C9 mph, N100%10000m1006hPa32%
28-Jun-2024 18:00Overcast Clouds34°C7 mph, NW98%10000m1005hPa24%
28-Jun-2024 21:00Broken Clouds37°C9 mph, NW75%10000m1002hPa18%
29-Jun-2024 00:00Overcast Clouds37°C2 mph, SW88%10000m1001hPa17%
29-Jun-2024 03:00Overcast Clouds32°C13 mph, SE100%10000m1004hPa27%
29-Jun-2024 06:00Overcast Clouds30°C7 mph, E99%10000m1006hPa31%
29-Jun-2024 09:00Overcast Clouds28°C11 mph, S100%10000m1006hPa39%
29-Jun-2024 12:00Overcast Clouds23°C18 mph, SW100%10000m1009hPa60%
29-Jun-2024 15:00Overcast Clouds28°C2 mph, NE93%10000m1010hPa41%
29-Jun-2024 18:00Broken Clouds33°C13 mph, E80%10000m1010hPa31%
29-Jun-2024 21:00Broken Clouds36°C25 mph, SE70%10000m1008hPa24%
30-Jun-2024 00:00Broken Clouds34°C25 mph, E72%10000m1007hPa27%
30-Jun-2024 03:00Clear Sky29°C20 mph, E2%10000m1010hPa32%
30-Jun-2024 06:00Light Rain27°C18 mph, E5%10000m1014hPa43%
30-Jun-2024 09:00Clear Sky25°C16 mph, E3%10000m1013hPa50%